sensor_id;sensor_type;location;lat;lon;timestamp;temperature;humidity
18067;DHT22;9158;51.528;7.192;2023-02-15T00:00:15;4.30;1.00
18067;DHT22;9158;51.528;7.192;2023-02-15T00:00:47;4.40;1.00
18067;DHT22;9158;51.528;7.192;2023-02-15T00:01:18;4.40;1.00
18067;DHT22;9158;51.528;7.192;2023-02-15T00:01:50;4.40;1.00
18067;DHT22;9158;51.528;7.192;2023-02-15T00:02:22;4.30;1.00
18067;DHT22;9158;51.528;7.192;2023-02-15T00:02:54;4.30;1.00
18067;DHT22;9158;51.528;7.192;2023-02-15T00:03:25;4.40;1.00
18067;DHT22;9158;51.528;7.192;2023-02-15T00:03:57;4.40;1.00
18067;DHT22;9158;51.528;7.192;2023-02-15T00:04:28;4.40;1.00
18067;DHT22;9158;51.528;7.192;2023-02-15T00:05:16;4.40;1.00
18067;DHT22;9158;51.528;7.192;2023-02-15T00:05:48;4.40;1.00
18067;DHT22;9158;51.528;7.192;2023-02-15T00:06:19;4.40;1.00
18067;DHT22;9158;51.528;7.192;2023-02-15T00:06:50;4.40;1.00
18067;DHT22;9158;51.528;7.192;2023-02-15T00:07:22;4.40;1.00
18067;DHT22;9158;51.528;7.192;2023-02-15T00:07:53;4.40;1.00
18067;DHT22;9158;51.528;7.192;2023-02-15T00:08:24;4.40;1.00
18067;DHT22;9158;51.528;7.192;2023-02-15T00:08:57;4.40;1.00
18067;DHT22;9158;51.528;7.192;2023-02-15T00:09:28;4.40;1.00
18067;DHT22;9158;51.528;7.192;2023-02-15T00:09:59;4.40;1.00
18067;DHT22;9158;51.528;7.192;2023-02-15T00:10:31;4.30;1.00
18067;DHT22;9158;51.528;7.192;2023-02-15T00:11:06;4.30;1.00
18067;DHT22;9158;51.528;7.192;2023-02-15T00:11:37;4.30;1.00
18067;DHT22;9158;51.528;7.192;2023-02-15T00:12:14;4.30;1.00
18067;DHT22;9158;51.528;7.192;2023-02-15T00:12:45;4.30;1.00
18067;DHT22;9158;51.528;7.192;2023-02-15T00:13:16;4.30;1.00
18067;DHT22;9158;51.528;7.192;2023-02-15T00:13:49;4.30;1.00
18067;DHT22;9158;51.528;7.192;2023-02-15T00:14:21;4.20;1.00
18067;DHT22;9158;51.528;7.192;2023-02-15T00:14:53;4.30;1.00
18067;DHT22;9158;51.528;7.192;2023-02-15T00:15:24;4.30;1.00
18067;DHT22;9158;51.528;7.192;2023-02-15T00:16:00;4.20;1.00
18067;DHT22;9158;51.528;7.192;2023-02-15T00:16:31;4.20;1.00
18067;DHT22;9158;51.528;7.192;2023-02-15T00:17:04;4.20;1.00
18067;DHT22;9158;51.528;7.192;2023-02-15T00:17:35;4.20;1.00
18067;DHT22;9158;51.528;7.192;2023-02-15T00:18:06;4.20;1.00
18067;DHT22;9158;51.528;7.192;2023-02-15T00:18:38;4.20;1.00
18067;DHT22;9158;51.528;7.192;2023-02-15T00:19:11;4.20;1.00
18067;DHT22;9158;51.528;7.192;2023-02-15T00:19:42;4.20;1.00
18067;DHT22;9158;51.528;7.192;2023-02-15T00:20:15;4.20;1.00
18067;DHT22;9158;51.528;7.192;2023-02-15T00:20:46;4.20;1.00
18067;DHT22;9158;51.528;7.192;2023-02-15T00:21:17;4.20;1.00
18067;DHT22;9158;51.528;7.192;2023-02-15T00:21:49;4.20;1.00
18067;DHT22;9158;51.528;7.192;2023-02-15T00:22:20;3.90;1.00
18067;DHT22;9158;51.528;7.192;2023-02-15T00:22:51;4.20;1.00
18067;DHT22;9158;51.528;7.192;2023-02-15T00:23:23;4.20;1.00
18067;DHT22;9158;51.528;7.192;2023-02-15T00:23:54;4.20;1.00
18067;DHT22;9158;51.528;7.192;2023-02-15T00:24:25;4.10;1.00
18067;DHT22;9158;51.528;7.192;2023-02-15T00:25:00;4.10;1.00
18067;DHT22;9158;51.528;7.192;2023-02-15T00:25:31;4.10;1.00
18067;DHT22;9158;51.528;7.192;2023-02-15T00:26:06;4.10;1.00
18067;DHT22;9158;51.528;7.192;2023-02-15T00:26:39;4.20;5.20
18067;DHT22;9158;51.528;7.192;2023-02-15T00:27:10;4.10;1.00
18067;DHT22;9158;51.528;7.192;2023-02-15T00:27:41;4.20;1.00
18067;DHT22;9158;51.528;7.192;2023-02-15T00:28:13;4.10;1.00
18067;DHT22;9158;51.528;7.192;2023-02-15T00:28:44;4.10;1.00
18067;DHT22;9158;51.528;7.192;2023-02-15T00:29:18;4.10;1.00
18067;DHT22;9158;51.528;7.192;2023-02-15T00:29:50;4.10;1.00
18067;DHT22;9158;51.528;7.192;2023-02-15T00:30:21;4.10;1.00
18067;DHT22;9158;51.528;7.192;2023-02-15T00:30:52;4.10;1.00
18067;DHT22;9158;51.528;7.192;2023-02-15T00:31:25;4.10;1.00
18067;DHT22;9158;51.528;7.192;2023-02-15T00:31:56;4.10;1.00
18067;DHT22;9158;51.528;7.192;2023-02-15T00:32:28;4.00;1.00
18067;DHT22;9158;51.528;7.192;2023-02-15T00:33:00;4.10;1.00
18067;DHT22;9158;51.528;7.192;2023-02-15T00:33:31;4.00;1.00
18067;DHT22;9158;51.528;7.192;2023-02-15T00:34:03;4.00;1.00
18067;DHT22;9158;51.528;7.192;2023-02-15T00:34:34;4.00;1.00
18067;DHT22;9158;51.528;7.192;2023-02-15T00:35:06;3.90;1.00
18067;DHT22;9158;51.528;7.192;2023-02-15T00:35:38;3.90;1.00
18067;DHT22;9158;51.528;7.192;2023-02-15T00:36:10;3.90;1.00
18067;DHT22;9158;51.528;7.192;2023-02-15T00:36:41;4.00;1.00
18067;DHT22;9158;51.528;7.192;2023-02-15T00:37:13;4.00;1.00
18067;DHT22;9158;51.528;7.192;2023-02-15T00:37:44;3.90;1.00
18067;DHT22;9158;51.528;7.192;2023-02-15T00:38:15;3.90;1.00
18067;DHT22;9158;51.528;7.192;2023-02-15T00:38:47;3.90;1.00
18067;DHT22;9158;51.528;7.192;2023-02-15T00:39:18;4.00;1.00
18067;DHT22;9158;51.528;7.192;2023-02-15T00:39:50;3.90;1.00
18067;DHT22;9158;51.528;7.192;2023-02-15T00:40:22;4.00;1.00
18067;DHT22;9158;51.528;7.192;2023-02-15T00:40:53;4.00;1.00
18067;DHT22;9158;51.528;7.192;2023-02-15T00:41:24;4.00;1.00
18067;DHT22;9158;51.528;7.192;2023-02-15T00:41:57;4.00;1.00
18067;DHT22;9158;51.528;7.192;2023-02-15T00:42:28;4.00;1.00
18067;DHT22;9158;51.528;7.192;2023-02-15T00:42:59;4.00;1.00
18067;DHT22;9158;51.528;7.192;2023-02-15T00:43:32;4.00;1.00
18067;DHT22;9158;51.528;7.192;2023-02-15T00:44:04;4.00;99.90
18067;DHT22;9158;51.528;7.192;2023-02-15T00:44:36;4.00;1.00
18067;DHT22;9158;51.528;7.192;2023-02-15T00:45:09;4.00;1.00
18067;DHT22;9158;51.528;7.192;2023-02-15T00:45:40;4.00;14.30
18067;DHT22;9158;51.528;7.192;2023-02-15T00:46:11;4.00;1.00
18067;DHT22;9158;51.528;7.192;2023-02-15T00:46:44;4.00;1.00
18067;DHT22;9158;51.528;7.192;2023-02-15T00:47:16;4.00;1.00
18067;DHT22;9158;51.528;7.192;2023-02-15T00:47:47;4.00;1.00
18067;DHT22;9158;51.528;7.192;2023-02-15T00:48:20;4.00;1.00
18067;DHT22;9158;51.528;7.192;2023-02-15T00:48:52;3.90;1.00
18067;DHT22;9158;51.528;7.192;2023-02-15T00:49:23;3.90;1.00
18067;DHT22;9158;51.528;7.192;2023-02-15T00:49:54;3.90;1.00
18067;DHT22;9158;51.528;7.192;2023-02-15T00:50:26;4.00;1.00
18067;DHT22;9158;51.528;7.192;2023-02-15T00:50:58;3.90;1.00
18067;DHT22;9158;51.528;7.192;2023-02-15T00:51:29;3.90;1.00
18067;DHT22;9158;51.528;7.192;2023-02-15T00:52:00;3.90;1.00
18067;DHT22;9158;51.528;7.192;2023-02-15T00:52:32;3.90;1.00
18067;DHT22;9158;51.528;7.192;2023-02-15T00:53:03;3.90;1.00
18067;DHT22;9158;51.528;7.192;2023-02-15T00:53:34;3.90;1.00
18067;DHT22;9158;51.528;7.192;2023-02-15T00:54:06;3.90;1.00
18067;DHT22;9158;51.528;7.192;2023-02-15T00:54:38;3.80;1.00
18067;DHT22;9158;51.528;7.192;2023-02-15T00:55:09;3.80;1.00
18067;DHT22;9158;51.528;7.192;2023-02-15T00:55:40;3.80;1.00
18067;DHT22;9158;51.528;7.192;2023-02-15T00:56:12;3.80;1.00
18067;DHT22;9158;51.528;7.192;2023-02-15T00:56:43;3.80;1.00
18067;DHT22;9158;51.528;7.192;2023-02-15T00:57:14;3.80;1.00
18067;DHT22;9158;51.528;7.192;2023-02-15T00:57:46;3.70;1.00
18067;DHT22;9158;51.528;7.192;2023-02-15T00:58:17;3.70;1.00
18067;DHT22;9158;51.528;7.192;2023-02-15T00:58:48;3.60;16.30
18067;DHT22;9158;51.528;7.192;2023-02-15T00:59:20;3.70;1.00
18067;DHT22;9158;51.528;7.192;2023-02-15T00:59:53;3.70;1.00
18067;DHT22;9158;51.528;7.192;2023-02-15T01:00:24;3.60;1.00
18067;DHT22;9158;51.528;7.192;2023-02-15T01:01:02;3.50;1.00
18067;DHT22;9158;51.528;7.192;2023-02-15T01:01:35;3.50;1.00
18067;DHT22;9158;51.528;7.192;2023-02-15T01:02:06;3.50;1.00
18067;DHT22;9158;51.528;7.192;2023-02-15T01:02:37;3.40;1.00
18067;DHT22;9158;51.528;7.192;2023-02-15T01:03:09;3.40;1.00
18067;DHT22;9158;51.528;7.192;2023-02-15T01:03:41;3.40;1.00
18067;DHT22;9158;51.528;7.192;2023-02-15T01:04:13;3.40;1.00
18067;DHT22;9158;51.528;7.192;2023-02-15T01:04:45;3.40;1.00
18067;DHT22;9158;51.528;7.192;2023-02-15T01:05:16;3.40;1.00
18067;DHT22;9158;51.528;7.192;2023-02-15T01:05:48;3.40;1.00
18067;DHT22;9158;51.528;7.192;2023-02-15T01:06:20;3.30;1.00
18067;DHT22;9158;51.528;7.192;2023-02-15T01:06:51;3.30;1.00
18067;DHT22;9158;51.528;7.192;2023-02-15T01:07:22;3.30;1.00
18067;DHT22;9158;51.528;7.192;2023-02-15T01:07:54;3.40;1.00
18067;DHT22;9158;51.528;7.192;2023-02-15T01:08:25;3.30;99.90
18067;DHT22;9158;51.528;7.192;2023-02-15T01:08:56;3.40;80.10
18067;DHT22;9158;51.528;7.192;2023-02-15T01:09:28;3.40;1.00
18067;DHT22;9158;51.528;7.192;2023-02-15T01:10:00;3.40;1.00
18067;DHT22;9158;51.528;7.192;2023-02-15T01:10:31;3.40;1.00
18067;DHT22;9158;51.528;7.192;2023-02-15T01:11:04;3.30;8.30
18067;DHT22;9158;51.528;7.192;2023-02-15T01:11:36;3.40;22.60
18067;DHT22;9158;51.528;7.192;2023-02-15T01:12:07;3.40;11.40
18067;DHT22;9158;51.528;7.192;2023-02-15T01:12:39;3.40;1.00
18067;DHT22;9158;51.528;7.192;2023-02-15T01:13:11;3.30;4.30
18067;DHT22;9158;51.528;7.192;2023-02-15T01:13:42;3.30;30.00
18067;DHT22;9158;51.528;7.192;2023-02-15T01:14:13;3.30;3.00
18067;DHT22;9158;51.528;7.192;2023-02-15T01:14:46;3.30;38.90
18067;DHT22;9158;51.528;7.192;2023-02-15T01:15:18;3.30;1.00
18067;DHT22;9158;51.528;7.192;2023-02-15T01:15:53;3.30;11.90
18067;DHT22;9158;51.528;7.192;2023-02-15T01:16:26;3.30;1.00
18067;DHT22;9158;51.528;7.192;2023-02-15T01:16:58;3.30;1.00
18067;DHT22;9158;51.528;7.192;2023-02-15T01:17:29;3.20;1.00
18067;DHT22;9158;51.528;7.192;2023-02-15T01:18:00;3.20;1.00
18067;DHT22;9158;51.528;7.192;2023-02-15T01:18:32;3.20;10.90
18067;DHT22;9158;51.528;7.192;2023-02-15T01:19:03;3.20;9.40
18067;DHT22;9158;51.528;7.192;2023-02-15T01:19:35;3.20;1.00
18067;DHT22;9158;51.528;7.192;2023-02-15T01:20:08;3.20;1.00
18067;DHT22;9158;51.528;7.192;2023-02-15T01:20:39;3.20;95.10
18067;DHT22;9158;51.528;7.192;2023-02-15T01:21:13;3.20;1.00
18067;DHT22;9158;51.528;7.192;2023-02-15T01:21:48;3.20;99.90
18067;DHT22;9158;51.528;7.192;2023-02-15T01:22:19;3.20;38.10
18067;DHT22;9158;51.528;7.192;2023-02-15T01:22:50;3.20;97.00
18067;DHT22;9158;51.528;7.192;2023-02-15T01:23:21;3.20;94.30
18067;DHT22;9158;51.528;7.192;2023-02-15T01:23:53;3.20;22.60
18067;DHT22;9158;51.528;7.192;2023-02-15T01:24:24;3.20;57.40
18067;DHT22;9158;51.528;7.192;2023-02-15T01:24:55;3.10;52.00
18067;DHT22;9158;51.528;7.192;2023-02-15T01:25:26;3.10;53.00
18067;DHT22;9158;51.528;7.192;2023-02-15T01:26:01;3.20;69.10
18067;DHT22;9158;51.528;7.192;2023-02-15T01:26:32;3.10;77.00
18067;DHT22;9158;51.528;7.192;2023-02-15T01:27:03;3.10;81.60
18067;DHT22;9158;51.528;7.192;2023-02-15T01:27:35;3.10;70.20
18067;DHT22;9158;51.528;7.192;2023-02-15T01:28:06;3.10;48.50
18067;DHT22;9158;51.528;7.192;2023-02-15T01:28:37;3.10;99.90
18067;DHT22;9158;51.528;7.192;2023-02-15T01:29:09;3.20;83.90
18067;DHT22;9158;51.528;7.192;2023-02-15T01:29:40;3.10;57.20
18067;DHT22;9158;51.528;7.192;2023-02-15T01:30:12;3.10;99.90
18067;DHT22;9158;51.528;7.192;2023-02-15T01:30:45;3.10;99.90
18067;DHT22;9158;51.528;7.192;2023-02-15T01:31:18;3.10;99.90
18067;DHT22;9158;51.528;7.192;2023-02-15T01:31:50;3.00;99.90
18067;DHT22;9158;51.528;7.192;2023-02-15T01:32:22;3.00;99.90
18067;DHT22;9158;51.528;7.192;2023-02-15T01:32:53;2.90;86.50
18067;DHT22;9158;51.528;7.192;2023-02-15T01:33:24;2.90;99.90
18067;DHT22;9158;51.528;7.192;2023-02-15T01:33:55;2.90;99.90
18067;DHT22;9158;51.528;7.192;2023-02-15T01:34:27;3.00;99.90
18067;DHT22;9158;51.528;7.192;2023-02-15T01:35:01;3.00;99.90
18067;DHT22;9158;51.528;7.192;2023-02-15T01:35:32;3.00;99.90
18067;DHT22;9158;51.528;7.192;2023-02-15T01:36:04;3.00;99.90
18067;DHT22;9158;51.528;7.192;2023-02-15T01:36:36;3.00;99.90
18067;DHT22;9158;51.528;7.192;2023-02-15T01:37:07;3.00;99.90
18067;DHT22;9158;51.528;7.192;2023-02-15T01:37:39;3.10;96.20
18067;DHT22;9158;51.528;7.192;2023-02-15T01:38:11;3.10;99.90
18067;DHT22;9158;51.528;7.192;2023-02-15T01:38:43;3.10;99.90
18067;DHT22;9158;51.528;7.192;2023-02-15T01:39:13;3.10;99.90
18067;DHT22;9158;51.528;7.192;2023-02-15T01:39:45;3.10;99.90
18067;DHT22;9158;51.528;7.192;2023-02-15T01:40:17;3.00;99.90
18067;DHT22;9158;51.528;7.192;2023-02-15T01:40:50;3.00;99.90
18067;DHT22;9158;51.528;7.192;2023-02-15T01:41:21;3.10;99.90
18067;DHT22;9158;51.528;7.192;2023-02-15T01:41:57;3.10;99.90
18067;DHT22;9158;51.528;7.192;2023-02-15T01:42:30;3.10;99.90
18067;DHT22;9158;51.528;7.192;2023-02-15T01:43:01;3.10;99.90
18067;DHT22;9158;51.528;7.192;2023-02-15T01:43:40;3.10;99.90
18067;DHT22;9158;51.528;7.192;2023-02-15T01:44:46;3.10;99.90
18067;DHT22;9158;51.528;7.192;2023-02-15T01:45:23;3.00;99.90
18067;DHT22;9158;51.528;7.192;2023-02-15T01:45:57;3.00;99.90
18067;DHT22;9158;51.528;7.192;2023-02-15T01:46:33;2.90;99.90
18067;DHT22;9158;51.528;7.192;2023-02-15T01:47:08;2.90;60.80
18067;DHT22;9158;51.528;7.192;2023-02-15T01:47:44;2.90;99.90
18067;DHT22;9158;51.528;7.192;2023-02-15T01:48:20;3.00;99.90
18067;DHT22;9158;51.528;7.192;2023-02-15T01:48:58;2.90;99.90
18067;DHT22;9158;51.528;7.192;2023-02-15T01:49:31;2.90;99.90
18067;DHT22;9158;51.528;7.192;2023-02-15T01:50:09;2.90;99.90
18067;DHT22;9158;51.528;7.192;2023-02-15T01:50:44;2.90;87.40
18067;DHT22;9158;51.528;7.192;2023-02-15T01:51:21;2.90;78.10
18067;DHT22;9158;51.528;7.192;2023-02-15T01:51:54;2.80;99.90
18067;DHT22;9158;51.528;7.192;2023-02-15T01:52:29;2.80;99.90
18067;DHT22;9158;51.528;7.192;2023-02-15T01:53:05;2.80;99.90
18067;DHT22;9158;51.528;7.192;2023-02-15T01:53:40;2.80;99.90
18067;DHT22;9158;51.528;7.192;2023-02-15T01:54:19;2.80;99.90
18067;DHT22;9158;51.528;7.192;2023-02-15T01:54:52;2.90;99.90
18067;DHT22;9158;51.528;7.192;2023-02-15T01:55:59;2.90;99.90
18067;DHT22;9158;51.528;7.192;2023-02-15T01:56:35;2.90;99.90
18067;DHT22;9158;51.528;7.192;2023-02-15T01:57:10;3.00;99.90
18067;DHT22;9158;51.528;7.192;2023-02-15T01:57:43;3.00;96.90
18067;DHT22;9158;51.528;7.192;2023-02-15T01:58:18;3.00;99.90
18067;DHT22;9158;51.528;7.192;2023-02-15T01:58:51;2.90;99.90
18067;DHT22;9158;51.528;7.192;2023-02-15T01:59:25;3.00;99.90
18067;DHT22;9158;51.528;7.192;2023-02-15T01:59:59;3.00;99.90
18067;DHT22;9158;51.528;7.192;2023-02-15T02:00:31;3.00;99.90
18067;DHT22;9158;51.528;7.192;2023-02-15T02:01:07;3.00;99.90
18067;DHT22;9158;51.528;7.192;2023-02-15T02:01:40;2.90;67.90
18067;DHT22;9158;51.528;7.192;2023-02-15T02:02:13;2.90;99.90
18067;DHT22;9158;51.528;7.192;2023-02-15T02:02:48;2.90;99.90
18067;DHT22;9158;51.528;7.192;2023-02-15T02:03:26;2.80;99.90
18067;DHT22;9158;51.528;7.192;2023-02-15T02:04:04;2.80;99.90
18067;DHT22;9158;51.528;7.192;2023-02-15T02:04:41;2.80;90.40
18067;DHT22;9158;51.528;7.192;2023-02-15T02:05:15;2.80;93.70
18067;DHT22;9158;51.528;7.192;2023-02-15T02:05:48;2.80;43.70
18067;DHT22;9158;51.528;7.192;2023-02-15T02:06:20;2.80;99.90
18067;DHT22;9158;51.528;7.192;2023-02-15T02:06:53;2.80;99.90
18067;DHT22;9158;51.528;7.192;2023-02-15T02:07:28;2.80;99.90
18067;DHT22;9158;51.528;7.192;2023-02-15T02:08:01;2.90;99.90
18067;DHT22;9158;51.528;7.192;2023-02-15T02:08:35;2.80;99.90
18067;DHT22;9158;51.528;7.192;2023-02-15T02:09:06;2.80;99.90
18067;DHT22;9158;51.528;7.192;2023-02-15T02:09:38;2.80;99.90
18067;DHT22;9158;51.528;7.192;2023-02-15T02:10:12;2.80;92.80
18067;DHT22;9158;51.528;7.192;2023-02-15T02:10:44;2.80;51.80
18067;DHT22;9158;51.528;7.192;2023-02-15T02:11:15;2.80;64.60
18067;DHT22;9158;51.528;7.192;2023-02-15T02:11:50;2.80;1.00
18067;DHT22;9158;51.528;7.192;2023-02-15T02:12:23;2.80;1.00
18067;DHT22;9158;51.528;7.192;2023-02-15T02:12:58;2.70;1.00
18067;DHT22;9158;51.528;7.192;2023-02-15T02:13:30;2.70;12.30
18067;DHT22;9158;51.528;7.192;2023-02-15T02:14:01;2.70;49.10
18067;DHT22;9158;51.528;7.192;2023-02-15T02:14:33;2.70;68.70
18067;DHT22;9158;51.528;7.192;2023-02-15T02:15:08;2.70;28.20
18067;DHT22;9158;51.528;7.192;2023-02-15T02:15:46;2.70;18.50
18067;DHT22;9158;51.528;7.192;2023-02-15T02:16:23;2.70;60.00
18067;DHT22;9158;51.528;7.192;2023-02-15T02:17:02;2.60;78.40
18067;DHT22;9158;51.528;7.192;2023-02-15T02:17:45;2.60;1.00
18067;DHT22;9158;51.528;7.192;2023-02-15T02:18:34;2.60;53.10
18067;DHT22;9158;51.528;7.192;2023-02-15T02:19:41;2.60;56.50
18067;DHT22;9158;51.528;7.192;2023-02-15T02:20:38;2.60;22.10
18067;DHT22;9158;51.528;7.192;2023-02-15T02:21:52;2.60;6.60
18067;DHT22;9158;51.528;7.192;2023-02-15T02:22:48;2.60;1.00
18067;DHT22;9158;51.528;7.192;2023-02-15T02:23:37;2.50;1.00
18067;DHT22;9158;51.528;7.192;2023-02-15T02:24:29;2.50;1.00
18067;DHT22;9158;51.528;7.192;2023-02-15T02:25:28;2.50;12.80
18067;DHT22;9158;51.528;7.192;2023-02-15T02:27:22;2.40;93.70
18067;DHT22;9158;51.528;7.192;2023-02-15T02:28:02;2.30;50.40
18067;DHT22;9158;51.528;7.192;2023-02-15T02:29:01;2.30;99.90
18067;DHT22;9158;51.528;7.192;2023-02-15T02:30:09;2.30;99.90
18067;DHT22;9158;51.528;7.192;2023-02-15T02:31:00;2.30;99.90
18067;DHT22;9158;51.528;7.192;2023-02-15T02:31:44;2.40;99.90
18067;DHT22;9158;51.528;7.192;2023-02-15T02:33:52;2.40;97.70
18067;DHT22;9158;51.528;7.192;2023-02-15T02:34:29;2.40;66.30
18067;DHT22;9158;51.528;7.192;2023-02-15T02:35:09;2.40;68.20
18067;DHT22;9158;51.528;7.192;2023-02-15T02:35:48;2.40;99.90
18067;DHT22;9158;51.528;7.192;2023-02-15T02:36:24;2.40;99.90
18067;DHT22;9158;51.528;7.192;2023-02-15T02:37:08;2.40;99.90
18067;DHT22;9158;51.528;7.192;2023-02-15T02:37:47;2.40;99.90
18067;DHT22;9158;51.528;7.192;2023-02-15T02:38:27;2.40;99.90
18067;DHT22;9158;51.528;7.192;2023-02-15T02:39:07;2.40;99.90
18067;DHT22;9158;51.528;7.192;2023-02-15T02:39:46;2.40;99.90
18067;DHT22;9158;51.528;7.192;2023-02-15T02:40:23;2.40;1.00
18067;DHT22;9158;51.528;7.192;2023-02-15T02:41:05;2.40;99.90
18067;DHT22;9158;51.528;7.192;2023-02-15T02:41:44;2.40;99.90
18067;DHT22;9158;51.528;7.192;2023-02-15T02:42:26;2.40;99.90
18067;DHT22;9158;51.528;7.192;2023-02-15T02:43:04;2.40;99.90
18067;DHT22;9158;51.528;7.192;2023-02-15T02:43:42;2.40;99.90
18067;DHT22;9158;51.528;7.192;2023-02-15T02:44:19;2.40;1.00
18067;DHT22;9158;51.528;7.192;2023-02-15T02:44:59;2.40;1.00
18067;DHT22;9158;51.528;7.192;2023-02-15T02:45:38;2.30;1.00
18067;DHT22;9158;51.528;7.192;2023-02-15T02:46:17;2.30;1.00
18067;DHT22;9158;51.528;7.192;2023-02-15T02:46:53;2.30;99.90
18067;DHT22;9158;51.528;7.192;2023-02-15T02:47:30;2.30;99.90
18067;DHT22;9158;51.528;7.192;2023-02-15T02:48:08;2.30;99.90
18067;DHT22;9158;51.528;7.192;2023-02-15T02:48:41;2.30;99.90
18067;DHT22;9158;51.528;7.192;2023-02-15T02:49:13;2.30;99.90
18067;DHT22;9158;51.528;7.192;2023-02-15T02:49:45;2.30;99.90
18067;DHT22;9158;51.528;7.192;2023-02-15T02:50:22;2.30;1.00
18067;DHT22;9158;51.528;7.192;2023-02-15T02:50:53;2.30;99.90
18067;DHT22;9158;51.528;7.192;2023-02-15T02:51:24;2.30;99.90
18067;DHT22;9158;51.528;7.192;2023-02-15T02:51:58;2.30;99.90
18067;DHT22;9158;51.528;7.192;2023-02-15T02:52:39;2.40;99.90
18067;DHT22;9158;51.528;7.192;2023-02-15T02:53:11;2.40;99.90
18067;DHT22;9158;51.528;7.192;2023-02-15T02:53:43;2.40;99.90
18067;DHT22;9158;51.528;7.192;2023-02-15T02:54:14;2.40;99.90
18067;DHT22;9158;51.528;7.192;2023-02-15T02:54:45;2.40;99.90
18067;DHT22;9158;51.528;7.192;2023-02-15T02:55:19;2.40;99.90
18067;DHT22;9158;51.528;7.192;2023-02-15T02:55:55;2.40;99.90
18067;DHT22;9158;51.528;7.192;2023-02-15T02:56:31;2.40;99.90
18067;DHT22;9158;51.528;7.192;2023-02-15T02:57:07;2.40;99.90
18067;DHT22;9158;51.528;7.192;2023-02-15T02:57:43;2.30;99.90
18067;DHT22;9158;51.528;7.192;2023-02-15T02:58:21;2.30;99.90
18067;DHT22;9158;51.528;7.192;2023-02-15T02:58:58;2.30;99.90
18067;DHT22;9158;51.528;7.192;2023-02-15T02:59:32;2.30;99.90
18067;DHT22;9158;51.528;7.192;2023-02-15T03:00:05;2.30;99.90
18067;DHT22;9158;51.528;7.192;2023-02-15T03:00:44;2.30;99.90
18067;DHT22;9158;51.528;7.192;2023-02-15T03:01:22;2.30;99.90
18067;DHT22;9158;51.528;7.192;2023-02-15T03:01:57;2.30;99.90
18067;DHT22;9158;51.528;7.192;2023-02-15T03:02:31;2.20;99.90
18067;DHT22;9158;51.528;7.192;2023-02-15T03:03:07;2.20;99.90
18067;DHT22;9158;51.528;7.192;2023-02-15T03:03:43;2.20;99.90
18067;DHT22;9158;51.528;7.192;2023-02-15T03:04:20;2.20;99.90
18067;DHT22;9158;51.528;7.192;2023-02-15T03:04:57;2.20;99.90
18067;DHT22;9158;51.528;7.192;2023-02-15T03:05:35;2.20;99.90
18067;DHT22;9158;51.528;7.192;2023-02-15T03:06:11;2.20;99.90
18067;DHT22;9158;51.528;7.192;2023-02-15T03:06:51;2.20;1.00
18067;DHT22;9158;51.528;7.192;2023-02-15T03:07:24;2.20;99.90
18067;DHT22;9158;51.528;7.192;2023-02-15T03:07:59;2.30;1.00
18067;DHT22;9158;51.528;7.192;2023-02-15T03:08:41;2.30;1.00
18067;DHT22;9158;51.528;7.192;2023-02-15T03:09:17;2.30;1.00
18067;DHT22;9158;51.528;7.192;2023-02-15T03:09:51;2.30;1.00
18067;DHT22;9158;51.528;7.192;2023-02-15T03:10:24;2.30;1.00
18067;DHT22;9158;51.528;7.192;2023-02-15T03:10:58;2.30;1.00
18067;DHT22;9158;51.528;7.192;2023-02-15T03:11:30;2.30;99.90
18067;DHT22;9158;51.528;7.192;2023-02-15T03:12:03;2.30;99.90
18067;DHT22;9158;51.528;7.192;2023-02-15T03:12:38;2.30;99.90
18067;DHT22;9158;51.528;7.192;2023-02-15T03:13:10;2.30;99.90
18067;DHT22;9158;51.528;7.192;2023-02-15T03:13:43;2.30;99.90
18067;DHT22;9158;51.528;7.192;2023-02-15T03:14:17;2.40;99.90
18067;DHT22;9158;51.528;7.192;2023-02-15T03:14:51;2.30;99.90
18067;DHT22;9158;51.528;7.192;2023-02-15T03:15:27;2.30;99.90
18067;DHT22;9158;51.528;7.192;2023-02-15T03:16:20;2.30;99.90
18067;DHT22;9158;51.528;7.192;2023-02-15T03:16:58;2.40;99.90
18067;DHT22;9158;51.528;7.192;2023-02-15T03:17:34;2.40;99.90
18067;DHT22;9158;51.528;7.192;2023-02-15T03:18:06;2.40;99.90
18067;DHT22;9158;51.528;7.192;2023-02-15T03:18:40;2.40;99.90
18067;DHT22;9158;51.528;7.192;2023-02-15T03:19:14;2.40;99.90
18067;DHT22;9158;51.528;7.192;2023-02-15T03:19:51;2.40;99.90
18067;DHT22;9158;51.528;7.192;2023-02-15T03:20:27;2.40;99.90
18067;DHT22;9158;51.528;7.192;2023-02-15T03:21:01;2.40;99.90
18067;DHT22;9158;51.528;7.192;2023-02-15T03:21:36;2.40;99.90
18067;DHT22;9158;51.528;7.192;2023-02-15T03:22:15;2.40;99.90
18067;DHT22;9158;51.528;7.192;2023-02-15T03:22:49;2.40;99.90
18067;DHT22;9158;51.528;7.192;2023-02-15T03:23:24;2.40;99.90
18067;DHT22;9158;51.528;7.192;2023-02-15T03:24:00;2.40;99.90
18067;DHT22;9158;51.528;7.192;2023-02-15T03:24:36;2.40;99.90
18067;DHT22;9158;51.528;7.192;2023-02-15T03:25:12;2.40;99.90
18067;DHT22;9158;51.528;7.192;2023-02-15T03:25:48;2.40;1.00
18067;DHT22;9158;51.528;7.192;2023-02-15T03:26:21;2.40;99.90
18067;DHT22;9158;51.528;7.192;2023-02-15T03:26:55;2.40;99.90
18067;DHT22;9158;51.528;7.192;2023-02-15T03:27:32;2.40;99.90
18067;DHT22;9158;51.528;7.192;2023-02-15T03:28:08;2.30;99.90
18067;DHT22;9158;51.528;7.192;2023-02-15T03:28:43;2.30;99.90
18067;DHT22;9158;51.528;7.192;2023-02-15T03:29:18;2.30;1.00
18067;DHT22;9158;51.528;7.192;2023-02-15T03:29:52;2.30;99.90
18067;DHT22;9158;51.528;7.192;2023-02-15T03:30:25;2.30;99.90
18067;DHT22;9158;51.528;7.192;2023-02-15T03:31:03;2.30;99.90
18067;DHT22;9158;51.528;7.192;2023-02-15T03:31:38;2.30;99.90
18067;DHT22;9158;51.528;7.192;2023-02-15T03:32:11;2.30;99.90
18067;DHT22;9158;51.528;7.192;2023-02-15T03:32:45;2.30;57.40
18067;DHT22;9158;51.528;7.192;2023-02-15T03:33:19;2.30;99.90
18067;DHT22;9158;51.528;7.192;2023-02-15T03:33:53;2.30;99.90
18067;DHT22;9158;51.528;7.192;2023-02-15T03:34:26;2.30;99.90
18067;DHT22;9158;51.528;7.192;2023-02-15T03:34:59;2.30;99.90
18067;DHT22;9158;51.528;7.192;2023-02-15T03:35:35;2.30;99.90
18067;DHT22;9158;51.528;7.192;2023-02-15T03:36:11;2.30;99.90
18067;DHT22;9158;51.528;7.192;2023-02-15T03:36:52;2.30;99.90
18067;DHT22;9158;51.528;7.192;2023-02-15T03:37:34;2.30;99.90
18067;DHT22;9158;51.528;7.192;2023-02-15T03:38:07;2.30;99.90
18067;DHT22;9158;51.528;7.192;2023-02-15T03:38:44;2.30;99.90
18067;DHT22;9158;51.528;7.192;2023-02-15T03:39:21;2.30;99.90
18067;DHT22;9158;51.528;7.192;2023-02-15T03:39:59;2.30;99.90
18067;DHT22;9158;51.528;7.192;2023-02-15T03:40:54;2.20;99.90
18067;DHT22;9158;51.528;7.192;2023-02-15T03:41:46;2.20;99.90
18067;DHT22;9158;51.528;7.192;2023-02-15T03:42:25;2.20;99.90
18067;DHT22;9158;51.528;7.192;2023-02-15T03:43:01;2.20;99.90
18067;DHT22;9158;51.528;7.192;2023-02-15T03:43:36;2.20;99.90
18067;DHT22;9158;51.528;7.192;2023-02-15T03:44:14;2.20;99.90
18067;DHT22;9158;51.528;7.192;2023-02-15T03:44:51;2.20;99.90
18067;DHT22;9158;51.528;7.192;2023-02-15T03:45:29;2.20;99.90
18067;DHT22;9158;51.528;7.192;2023-02-15T03:46:06;2.20;99.90
18067;DHT22;9158;51.528;7.192;2023-02-15T03:46:44;2.20;99.90
18067;DHT22;9158;51.528;7.192;2023-02-15T03:47:19;2.20;99.90
18067;DHT22;9158;51.528;7.192;2023-02-15T03:47:52;2.20;99.90
18067;DHT22;9158;51.528;7.192;2023-02-15T03:48:27;2.20;99.90
18067;DHT22;9158;51.528;7.192;2023-02-15T03:49:03;2.20;99.90
18067;DHT22;9158;51.528;7.192;2023-02-15T03:49:40;2.10;99.90
18067;DHT22;9158;51.528;7.192;2023-02-15T03:50:17;2.20;99.90
18067;DHT22;9158;51.528;7.192;2023-02-15T03:51:10;2.20;99.90